Garden Prairie, Illinois
Current Conditions -  °F | °C
As of 1:54 AM on Thursday 29 Jan 2015 (Local Time) from KRFD Reporting Station
Overcast Overcast  
Wind Chill: 29°   Ceiling: 25000
Heat Index: 34°   Visibility: 10mi
Dew Point: 27°   Wind: 6mph
Humidity: 75%   Direction: 120°ESE
Pressure: 29.74"   Gusts: NA
Location:  42.25°N, 88.72°W
Report Text: KRFD 290754Z 12005KT 10SM SCT080 OVC250 01/M03 A2974 RMK AO2 SLP078 T00111028
Loading
Personal Weather Stations






























Interactive Weather Map New forecast layout! Learn more

10-Day Weather Forecast

Advertisements
Track Severe Weather on mobile